sensor_id;sensor_type;location;lat;lon;timestamp;P1;durP1;ratioP1;P2;durP2;ratioP2
21438;SDS011;10880;50.302;18.736;2023-12-07T00:01:16;81.70;;;31.87;;
21438;SDS011;10880;50.302;18.736;2023-12-07T00:03:43;81.70;;;33.13;;
21438;SDS011;10880;50.302;18.736;2023-12-07T00:06:10;80.20;;;32.50;;
21438;SDS011;10880;50.302;18.736;2023-12-07T00:08:36;93.90;;;36.00;;
21438;SDS011;10880;50.302;18.736;2023-12-07T00:11:03;97.77;;;36.57;;
21438;SDS011;10880;50.302;18.736;2023-12-07T00:13:30;91.30;;;32.90;;
21438;SDS011;10880;50.302;18.736;2023-12-07T00:15:56;83.10;;;32.33;;
21438;SDS011;10880;50.302;18.736;2023-12-07T00:18:23;94.90;;;33.90;;
21438;SDS011;10880;50.302;18.736;2023-12-07T00:20:49;90.37;;;32.80;;
21438;SDS011;10880;50.302;18.736;2023-12-07T00:23:16;81.43;;;29.60;;
21438;SDS011;10880;50.302;18.736;2023-12-07T00:25:42;78.20;;;30.07;;
21438;SDS011;10880;50.302;18.736;2023-12-07T00:28:11;76.10;;;28.83;;
21438;SDS011;10880;50.302;18.736;2023-12-07T00:30:38;84.37;;;31.43;;
21438;SDS011;10880;50.302;18.736;2023-12-07T00:33:04;71.97;;;28.97;;
21438;SDS011;10880;50.302;18.736;2023-12-07T00:35:31;79.43;;;30.63;;
21438;SDS011;10880;50.302;18.736;2023-12-07T00:37:57;79.47;;;30.20;;
21438;SDS011;10880;50.302;18.736;2023-12-07T00:40:24;78.77;;;29.03;;
21438;SDS011;10880;50.302;18.736;2023-12-07T00:42:50;85.37;;;30.27;;
21438;SDS011;10880;50.302;18.736;2023-12-07T00:45:17;83.83;;;31.47;;
21438;SDS011;10880;50.302;18.736;2023-12-07T00:47:43;78.73;;;29.67;;
21438;SDS011;10880;50.302;18.736;2023-12-07T00:50:13;72.47;;;27.70;;
21438;SDS011;10880;50.302;18.736;2023-12-07T00:52:40;69.93;;;28.10;;
21438;SDS011;10880;50.302;18.736;2023-12-07T00:55:08;73.00;;;27.70;;
21438;SDS011;10880;50.302;18.736;2023-12-07T00:57:34;78.83;;;28.87;;
21438;SDS011;10880;50.302;18.736;2023-12-07T01:00:01;63.53;;;25.50;;
21438;SDS011;10880;50.302;18.736;2023-12-07T01:02:29;66.23;;;24.77;;
21438;SDS011;10880;50.302;18.736;2023-12-07T01:04:55;61.17;;;24.13;;
21438;SDS011;10880;50.302;18.736;2023-12-07T01:07:22;62.17;;;24.30;;
21438;SDS011;10880;50.302;18.736;2023-12-07T01:09:49;67.30;;;25.20;;
21438;SDS011;10880;50.302;18.736;2023-12-07T01:12:16;68.47;;;26.77;;
21438;SDS011;10880;50.302;18.736;2023-12-07T01:14:42;71.93;;;26.67;;
21438;SDS011;10880;50.302;18.736;2023-12-07T01:17:09;77.87;;;28.50;;
21438;SDS011;10880;50.302;18.736;2023-12-07T01:19:35;90.80;;;31.53;;
21438;SDS011;10880;50.302;18.736;2023-12-07T01:22:02;75.20;;;29.13;;
21438;SDS011;10880;50.302;18.736;2023-12-07T01:24:30;81.33;;;30.57;;
21438;SDS011;10880;50.302;18.736;2023-12-07T01:26:57;75.53;;;28.40;;
21438;SDS011;10880;50.302;18.736;2023-12-07T01:29:24;77.73;;;28.60;;
21438;SDS011;10880;50.302;18.736;2023-12-07T01:31:51;80.37;;;29.77;;
21438;SDS011;10880;50.302;18.736;2023-12-07T01:34:17;72.57;;;28.03;;
21438;SDS011;10880;50.302;18.736;2023-12-07T01:36:44;68.00;;;26.83;;
21438;SDS011;10880;50.302;18.736;2023-12-07T01:39:11;68.13;;;26.13;;
21438;SDS011;10880;50.302;18.736;2023-12-07T01:41:39;70.77;;;26.47;;
21438;SDS011;10880;50.302;18.736;2023-12-07T01:44:06;66.63;;;24.53;;
21438;SDS011;10880;50.302;18.736;2023-12-07T01:46:32;63.13;;;25.07;;
21438;SDS011;10880;50.302;18.736;2023-12-07T01:48:59;73.13;;;27.40;;
21438;SDS011;10880;50.302;18.736;2023-12-07T01:51:27;70.07;;;26.57;;
21438;SDS011;10880;50.302;18.736;2023-12-07T01:53:54;74.53;;;28.10;;
21438;SDS011;10880;50.302;18.736;2023-12-07T01:56:21;76.20;;;27.60;;
21438;SDS011;10880;50.302;18.736;2023-12-07T01:58:48;71.93;;;27.33;;
21438;SDS011;10880;50.302;18.736;2023-12-07T02:01:15;66.97;;;26.03;;
21438;SDS011;10880;50.302;18.736;2023-12-07T02:03:41;64.47;;;26.20;;
21438;SDS011;10880;50.302;18.736;2023-12-07T02:06:08;70.20;;;26.20;;
21438;SDS011;10880;50.302;18.736;2023-12-07T02:08:36;65.27;;;24.60;;
21438;SDS011;10880;50.302;18.736;2023-12-07T02:11:07;69.70;;;25.97;;
21438;SDS011;10880;50.302;18.736;2023-12-07T02:13:36;68.27;;;26.83;;
21438;SDS011;10880;50.302;18.736;2023-12-07T02:16:21;70.20;;;27.17;;
21438;SDS011;10880;50.302;18.736;2023-12-07T02:19:02;68.47;;;26.63;;
21438;SDS011;10880;50.302;18.736;2023-12-07T02:21:48;71.43;;;27.00;;
21438;SDS011;10880;50.302;18.736;2023-12-07T02:24:24;74.37;;;28.93;;
21438;SDS011;10880;50.302;18.736;2023-12-07T02:26:54;68.33;;;26.93;;
21438;SDS011;10880;50.302;18.736;2023-12-07T02:29:21;70.63;;;26.83;;
21438;SDS011;10880;50.302;18.736;2023-12-07T02:31:47;70.40;;;27.30;;
21438;SDS011;10880;50.302;18.736;2023-12-07T02:34:14;75.23;;;29.07;;
21438;SDS011;10880;50.302;18.736;2023-12-07T02:36:41;73.23;;;28.53;;
21438;SDS011;10880;50.302;18.736;2023-12-07T02:39:10;71.17;;;26.83;;
21438;SDS011;10880;50.302;18.736;2023-12-07T02:41:38;74.00;;;28.93;;
21438;SDS011;10880;50.302;18.736;2023-12-07T02:44:06;79.50;;;30.10;;
21438;SDS011;10880;50.302;18.736;2023-12-07T02:46:33;81.87;;;31.07;;
21438;SDS011;10880;50.302;18.736;2023-12-07T02:49:01;84.23;;;31.87;;
21438;SDS011;10880;50.302;18.736;2023-12-07T02:51:28;74.47;;;28.33;;
21438;SDS011;10880;50.302;18.736;2023-12-07T02:53:55;79.33;;;30.00;;
21438;SDS011;10880;50.302;18.736;2023-12-07T02:56:21;79.83;;;30.70;;
21438;SDS011;10880;50.302;18.736;2023-12-07T02:58:48;76.03;;;28.37;;
21438;SDS011;10880;50.302;18.736;2023-12-07T03:01:15;85.70;;;31.33;;
21438;SDS011;10880;50.302;18.736;2023-12-07T03:03:41;83.40;;;31.17;;
21438;SDS011;10880;50.302;18.736;2023-12-07T03:06:08;74.63;;;28.90;;
21438;SDS011;10880;50.302;18.736;2023-12-07T03:08:35;81.77;;;30.53;;
21438;SDS011;10880;50.302;18.736;2023-12-07T03:11:01;83.70;;;30.80;;
21438;SDS011;10880;50.302;18.736;2023-12-07T03:13:28;82.10;;;28.73;;
21438;SDS011;10880;50.302;18.736;2023-12-07T03:15:55;83.50;;;29.13;;
21438;SDS011;10880;50.302;18.736;2023-12-07T03:18:21;81.90;;;30.13;;
21438;SDS011;10880;50.302;18.736;2023-12-07T03:20:48;79.63;;;30.00;;
21438;SDS011;10880;50.302;18.736;2023-12-07T03:23:16;82.50;;;32.07;;
21438;SDS011;10880;50.302;18.736;2023-12-07T03:25:42;76.07;;;28.70;;
21438;SDS011;10880;50.302;18.736;2023-12-07T03:28:09;72.87;;;27.90;;
21438;SDS011;10880;50.302;18.736;2023-12-07T03:30:35;73.30;;;28.10;;
21438;SDS011;10880;50.302;18.736;2023-12-07T03:33:03;84.67;;;31.43;;
21438;SDS011;10880;50.302;18.736;2023-12-07T03:35:29;82.43;;;30.13;;
21438;SDS011;10880;50.302;18.736;2023-12-07T03:37:56;74.77;;;28.63;;
21438;SDS011;10880;50.302;18.736;2023-12-07T03:40:22;80.87;;;29.93;;
21438;SDS011;10880;50.302;18.736;2023-12-07T03:42:49;82.20;;;29.60;;
21438;SDS011;10880;50.302;18.736;2023-12-07T03:45:15;78.37;;;28.87;;
21438;SDS011;10880;50.302;18.736;2023-12-07T03:47:43;79.40;;;30.43;;
21438;SDS011;10880;50.302;18.736;2023-12-07T03:50:10;84.70;;;31.50;;
21438;SDS011;10880;50.302;18.736;2023-12-07T03:52:36;73.20;;;27.30;;
21438;SDS011;10880;50.302;18.736;2023-12-07T03:55:03;69.93;;;26.87;;
21438;SDS011;10880;50.302;18.736;2023-12-07T03:57:32;83.73;;;31.00;;
21438;SDS011;10880;50.302;18.736;2023-12-07T03:59:59;86.30;;;32.63;;
21438;SDS011;10880;50.302;18.736;2023-12-07T04:02:26;87.53;;;31.93;;
21438;SDS011;10880;50.302;18.736;2023-12-07T04:04:53;79.50;;;29.83;;
21438;SDS011;10880;50.302;18.736;2023-12-07T04:07:19;79.30;;;29.97;;
21438;SDS011;10880;50.302;18.736;2023-12-07T04:09:46;77.83;;;27.80;;
21438;SDS011;10880;50.302;18.736;2023-12-07T04:12:13;69.00;;;25.83;;
21438;SDS011;10880;50.302;18.736;2023-12-07T04:14:39;64.93;;;23.50;;
21438;SDS011;10880;50.302;18.736;2023-12-07T04:17:06;73.57;;;26.23;;
21438;SDS011;10880;50.302;18.736;2023-12-07T04:19:33;73.50;;;27.53;;
21438;SDS011;10880;50.302;18.736;2023-12-07T04:22:01;78.63;;;27.77;;
21438;SDS011;10880;50.302;18.736;2023-12-07T04:24:28;55.40;;;23.20;;
21438;SDS011;10880;50.302;18.736;2023-12-07T04:26:55;72.17;;;26.17;;
21438;SDS011;10880;50.302;18.736;2023-12-07T04:29:21;69.43;;;24.20;;
21438;SDS011;10880;50.302;18.736;2023-12-07T04:31:47;62.37;;;22.83;;
21438;SDS011;10880;50.302;18.736;2023-12-07T04:34:14;61.07;;;23.57;;
21438;SDS011;10880;50.302;18.736;2023-12-07T04:36:41;80.90;;;30.73;;
21438;SDS011;10880;50.302;18.736;2023-12-07T04:39:07;76.17;;;27.73;;
21438;SDS011;10880;50.302;18.736;2023-12-07T04:41:34;71.13;;;25.53;;
21438;SDS011;10880;50.302;18.736;2023-12-07T04:44:01;78.23;;;27.87;;
21438;SDS011;10880;50.302;18.736;2023-12-07T04:46:27;67.93;;;24.80;;
21438;SDS011;10880;50.302;18.736;2023-12-07T04:48:55;57.67;;;21.50;;
21438;SDS011;10880;50.302;18.736;2023-12-07T04:51:22;54.70;;;21.03;;
21438;SDS011;10880;50.302;18.736;2023-12-07T04:53:50;55.97;;;22.40;;
21438;SDS011;10880;50.302;18.736;2023-12-07T04:56:16;61.67;;;22.27;;
21438;SDS011;10880;50.302;18.736;2023-12-07T04:58:43;61.03;;;23.53;;
21438;SDS011;10880;50.302;18.736;2023-12-07T05:01:09;60.27;;;22.93;;
21438;SDS011;10880;50.302;18.736;2023-12-07T05:03:36;52.67;;;19.17;;
21438;SDS011;10880;50.302;18.736;2023-12-07T05:06:03;69.77;;;26.90;;
21438;SDS011;10880;50.302;18.736;2023-12-07T05:08:29;74.10;;;27.23;;
21438;SDS011;10880;50.302;18.736;2023-12-07T05:10:57;56.20;;;23.53;;
21438;SDS011;10880;50.302;18.736;2023-12-07T05:13:23;77.53;;;28.57;;
21438;SDS011;10880;50.302;18.736;2023-12-07T05:15:50;71.17;;;27.37;;
21438;SDS011;10880;50.302;18.736;2023-12-07T05:18:17;100.17;;;36.57;;
21438;SDS011;10880;50.302;18.736;2023-12-07T05:20:43;88.37;;;30.93;;
21438;SDS011;10880;50.302;18.736;2023-12-07T05:23:10;92.33;;;33.63;;
21438;SDS011;10880;50.302;18.736;2023-12-07T05:25:36;111.10;;;36.23;;
21438;SDS011;10880;50.302;18.736;2023-12-07T05:28:03;112.77;;;38.37;;
21438;SDS011;10880;50.302;18.736;2023-12-07T05:30:30;87.17;;;31.00;;
21438;SDS011;10880;50.302;18.736;2023-12-07T05:32:57;76.77;;;28.70;;
21438;SDS011;10880;50.302;18.736;2023-12-07T05:35:23;70.17;;;25.93;;
21438;SDS011;10880;50.302;18.736;2023-12-07T05:37:50;77.13;;;27.13;;
21438;SDS011;10880;50.302;18.736;2023-12-07T05:40:16;89.80;;;31.00;;
21438;SDS011;10880;50.302;18.736;2023-12-07T05:42:45;83.57;;;29.70;;
21438;SDS011;10880;50.302;18.736;2023-12-07T05:45:15;96.57;;;34.97;;
21438;SDS011;10880;50.302;18.736;2023-12-07T05:47:41;77.30;;;28.60;;
21438;SDS011;10880;50.302;18.736;2023-12-07T05:50:08;80.53;;;28.10;;
21438;SDS011;10880;50.302;18.736;2023-12-07T05:52:35;73.77;;;27.27;;
21438;SDS011;10880;50.302;18.736;2023-12-07T05:55:02;68.93;;;27.13;;
21438;SDS011;10880;50.302;18.736;2023-12-07T05:57:30;67.33;;;26.20;;
21438;SDS011;10880;50.302;18.736;2023-12-07T05:59:57;79.23;;;28.53;;
21438;SDS011;10880;50.302;18.736;2023-12-07T06:02:23;84.73;;;31.23;;
21438;SDS011;10880;50.302;18.736;2023-12-07T06:04:50;71.07;;;26.10;;
21438;SDS011;10880;50.302;18.736;2023-12-07T06:07:17;75.80;;;27.60;;
21438;SDS011;10880;50.302;18.736;2023-12-07T06:09:43;83.10;;;30.20;;
21438;SDS011;10880;50.302;18.736;2023-12-07T06:12:10;71.77;;;27.20;;
21438;SDS011;10880;50.302;18.736;2023-12-07T06:14:37;84.67;;;29.90;;
21438;SDS011;10880;50.302;18.736;2023-12-07T06:17:03;78.73;;;29.70;;
21438;SDS011;10880;50.302;18.736;2023-12-07T06:19:30;69.13;;;25.97;;
21438;SDS011;10880;50.302;18.736;2023-12-07T06:21:57;67.47;;;25.03;;
21438;SDS011;10880;50.302;18.736;2023-12-07T06:24:23;88.80;;;31.23;;
21438;SDS011;10880;50.302;18.736;2023-12-07T06:26:51;82.90;;;30.10;;
21438;SDS011;10880;50.302;18.736;2023-12-07T06:29:17;81.37;;;30.07;;
21438;SDS011;10880;50.302;18.736;2023-12-07T06:31:47;79.83;;;27.90;;
21438;SDS011;10880;50.302;18.736;2023-12-07T06:34:13;82.67;;;30.43;;
21438;SDS011;10880;50.302;18.736;2023-12-07T06:36:40;82.40;;;31.40;;
21438;SDS011;10880;50.302;18.736;2023-12-07T06:39:07;81.17;;;30.27;;
21438;SDS011;10880;50.302;18.736;2023-12-07T06:41:33;93.00;;;32.93;;
21438;SDS011;10880;50.302;18.736;2023-12-07T06:44:00;76.70;;;28.80;;
21438;SDS011;10880;50.302;18.736;2023-12-07T06:46:27;82.00;;;27.83;;
21438;SDS011;10880;50.302;18.736;2023-12-07T06:48:53;62.63;;;24.83;;
21438;SDS011;10880;50.302;18.736;2023-12-07T06:51:20;58.30;;;22.97;;
21438;SDS011;10880;50.302;18.736;2023-12-07T06:53:47;54.17;;;22.10;;
21438;SDS011;10880;50.302;18.736;2023-12-07T06:56:13;70.87;;;27.00;;
21438;SDS011;10880;50.302;18.736;2023-12-07T06:58:40;76.23;;;29.50;;
21438;SDS011;10880;50.302;18.736;2023-12-07T07:01:07;84.40;;;31.40;;
21438;SDS011;10880;50.302;18.736;2023-12-07T07:03:34;81.67;;;30.87;;
21438;SDS011;10880;50.302;18.736;2023-12-07T07:06:01;79.03;;;30.37;;
21438;SDS011;10880;50.302;18.736;2023-12-07T07:08:27;99.50;;;35.93;;
21438;SDS011;10880;50.302;18.736;2023-12-07T07:10:55;86.53;;;31.80;;
21438;SDS011;10880;50.302;18.736;2023-12-07T07:13:22;66.90;;;26.10;;
21438;SDS011;10880;50.302;18.736;2023-12-07T07:15:49;79.77;;;30.03;;
21438;SDS011;10880;50.302;18.736;2023-12-07T07:18:16;77.07;;;29.67;;
21438;SDS011;10880;50.302;18.736;2023-12-07T07:20:43;81.17;;;30.17;;
21438;SDS011;10880;50.302;18.736;2023-12-07T07:23:10;72.77;;;27.03;;
21438;SDS011;10880;50.302;18.736;2023-12-07T07:25:37;82.20;;;29.67;;
21438;SDS011;10880;50.302;18.736;2023-12-07T07:28:04;66.00;;;24.73;;
21438;SDS011;10880;50.302;18.736;2023-12-07T07:30:31;65.60;;;25.80;;
21438;SDS011;10880;50.302;18.736;2023-12-07T07:32:58;66.17;;;24.87;;
21438;SDS011;10880;50.302;18.736;2023-12-07T07:35:24;71.87;;;27.10;;
21438;SDS011;10880;50.302;18.736;2023-12-07T07:37:53;66.10;;;25.50;;
21438;SDS011;10880;50.302;18.736;2023-12-07T07:40:19;68.27;;;24.63;;
21438;SDS011;10880;50.302;18.736;2023-12-07T07:42:46;64.93;;;25.13;;
21438;SDS011;10880;50.302;18.736;2023-12-07T07:45:13;84.37;;;27.77;;
21438;SDS011;10880;50.302;18.736;2023-12-07T07:47:40;72.83;;;26.30;;
21438;SDS011;10880;50.302;18.736;2023-12-07T07:50:07;81.83;;;29.23;;
21438;SDS011;10880;50.302;18.736;2023-12-07T07:52:34;87.73;;;30.43;;
21438;SDS011;10880;50.302;18.736;2023-12-07T07:55:02;95.97;;;33.03;;
21438;SDS011;10880;50.302;18.736;2023-12-07T07:57:30;107.40;;;36.23;;
21438;SDS011;10880;50.302;18.736;2023-12-07T07:59:57;86.70;;;31.90;;
21438;SDS011;10880;50.302;18.736;2023-12-07T08:02:24;98.90;;;33.03;;
21438;SDS011;10880;50.302;18.736;2023-12-07T08:04:50;77.10;;;28.17;;
21438;SDS011;10880;50.302;18.736;2023-12-07T08:07:17;78.23;;;27.53;;
21438;SDS011;10880;50.302;18.736;2023-12-07T08:09:44;69.90;;;25.93;;
21438;SDS011;10880;50.302;18.736;2023-12-07T08:12:11;74.40;;;28.73;;
21438;SDS011;10880;50.302;18.736;2023-12-07T08:14:37;75.67;;;27.80;;
21438;SDS011;10880;50.302;18.736;2023-12-07T08:17:04;77.70;;;27.13;;
21438;SDS011;10880;50.302;18.736;2023-12-07T08:19:30;72.60;;;27.00;;
21438;SDS011;10880;50.302;18.736;2023-12-07T08:21:57;81.73;;;28.80;;
21438;SDS011;10880;50.302;18.736;2023-12-07T08:24:23;81.03;;;29.33;;
21438;SDS011;10880;50.302;18.736;2023-12-07T08:26:51;83.03;;;30.13;;
21438;SDS011;10880;50.302;18.736;2023-12-07T08:29:17;73.07;;;26.40;;
21438;SDS011;10880;50.302;18.736;2023-12-07T08:31:44;76.80;;;27.83;;
21438;SDS011;10880;50.302;18.736;2023-12-07T08:34:10;67.03;;;24.97;;
21438;SDS011;10880;50.302;18.736;2023-12-07T08:36:37;59.07;;;23.30;;
21438;SDS011;10880;50.302;18.736;2023-12-07T08:39:03;62.27;;;23.20;;
21438;SDS011;10880;50.302;18.736;2023-12-07T08:41:35;53.47;;;21.37;;
21438;SDS011;10880;50.302;18.736;2023-12-07T08:44:02;71.83;;;26.80;;
21438;SDS011;10880;50.302;18.736;2023-12-07T08:46:29;73.23;;;27.57;;
21438;SDS011;10880;50.302;18.736;2023-12-07T08:48:56;65.83;;;24.83;;
21438;SDS011;10880;50.302;18.736;2023-12-07T08:51:23;81.40;;;29.17;;
21438;SDS011;10880;50.302;18.736;2023-12-07T08:53:49;71.10;;;27.87;;
21438;SDS011;10880;50.302;18.736;2023-12-07T08:56:18;82.13;;;28.97;;
21438;SDS011;10880;50.302;18.736;2023-12-07T08:58:45;86.67;;;30.83;;
21438;SDS011;10880;50.302;18.736;2023-12-07T09:01:11;75.90;;;27.90;;
21438;SDS011;10880;50.302;18.736;2023-12-07T09:03:38;76.83;;;29.07;;
21438;SDS011;10880;50.302;18.736;2023-12-07T09:06:06;77.20;;;26.67;;
21438;SDS011;10880;50.302;18.736;2023-12-07T09:08:34;77.60;;;28.27;;
21438;SDS011;10880;50.302;18.736;2023-12-07T09:11:01;87.90;;;29.77;;
21438;SDS011;10880;50.302;18.736;2023-12-07T09:13:29;86.37;;;31.50;;
21438;SDS011;10880;50.302;18.736;2023-12-07T09:15:56;90.07;;;32.47;;
21438;SDS011;10880;50.302;18.736;2023-12-07T09:18:23;79.27;;;29.63;;
21438;SDS011;10880;50.302;18.736;2023-12-07T09:20:50;73.43;;;28.60;;
21438;SDS011;10880;50.302;18.736;2023-12-07T09:23:16;79.67;;;30.07;;
21438;SDS011;10880;50.302;18.736;2023-12-07T09:25:43;85.70;;;30.60;;
21438;SDS011;10880;50.302;18.736;2023-12-07T09:28:10;82.73;;;29.97;;
21438;SDS011;10880;50.302;18.736;2023-12-07T09:30:37;75.37;;;26.30;;
21438;SDS011;10880;50.302;18.736;2023-12-07T09:33:04;64.50;;;22.13;;
21438;SDS011;10880;50.302;18.736;2023-12-07T09:35:31;55.67;;;21.50;;
21438;SDS011;10880;50.302;18.736;2023-12-07T09:37:59;59.30;;;21.53;;
21438;SDS011;10880;50.302;18.736;2023-12-07T09:40:26;63.47;;;22.43;;
21438;SDS011;10880;50.302;18.736;2023-12-07T09:42:53;61.93;;;22.87;;
21438;SDS011;10880;50.302;18.736;2023-12-07T09:45:20;59.40;;;21.83;;
21438;SDS011;10880;50.302;18.736;2023-12-07T09:47:48;55.77;;;21.20;;
21438;SDS011;10880;50.302;18.736;2023-12-07T09:50:16;64.93;;;23.47;;
21438;SDS011;10880;50.302;18.736;2023-12-07T09:52:44;69.77;;;24.93;;
21438;SDS011;10880;50.302;18.736;2023-12-07T09:55:13;60.10;;;21.83;;
21438;SDS011;10880;50.302;18.736;2023-12-07T09:57:41;57.90;;;22.57;;
21438;SDS011;10880;50.302;18.736;2023-12-07T10:00:08;69.10;;;25.63;;
21438;SDS011;10880;50.302;18.736;2023-12-07T10:02:43;73.87;;;26.43;;
21438;SDS011;10880;50.302;18.736;2023-12-07T10:05:12;72.57;;;26.47;;
21438;SDS011;10880;50.302;18.736;2023-12-07T10:07:42;74.57;;;27.20;;
21438;SDS011;10880;50.302;18.736;2023-12-07T10:10:10;70.07;;;25.83;;
21438;SDS011;10880;50.302;18.736;2023-12-07T10:12:44;85.37;;;29.37;;
21438;SDS011;10880;50.302;18.736;2023-12-07T10:15:12;70.17;;;26.73;;
21438;SDS011;10880;50.302;18.736;2023-12-07T10:17:50;73.03;;;25.20;;
21438;SDS011;10880;50.302;18.736;2023-12-07T10:20:22;74.90;;;27.97;;
21438;SDS011;10880;50.302;18.736;2023-12-07T10:23:03;80.90;;;28.73;;
21438;SDS011;10880;50.302;18.736;2023-12-07T10:25:32;77.50;;;27.63;;
21438;SDS011;10880;50.302;18.736;2023-12-07T10:28:01;69.57;;;24.13;;
21438;SDS011;10880;50.302;18.736;2023-12-07T10:30:33;59.27;;;22.73;;
21438;SDS011;10880;50.302;18.736;2023-12-07T10:33:00;66.77;;;25.33;;
21438;SDS011;10880;50.302;18.736;2023-12-07T10:35:33;54.90;;;21.73;;
21438;SDS011;10880;50.302;18.736;2023-12-07T10:38:04;52.63;;;21.17;;
21438;SDS011;10880;50.302;18.736;2023-12-07T10:40:31;64.17;;;24.77;;
21438;SDS011;10880;50.302;18.736;2023-12-07T10:42:57;58.27;;;23.07;;
21438;SDS011;10880;50.302;18.736;2023-12-07T10:45:29;79.03;;;28.93;;
21438;SDS011;10880;50.302;18.736;2023-12-07T10:47:59;78.07;;;28.30;;
21438;SDS011;10880;50.302;18.736;2023-12-07T10:50:34;81.53;;;29.27;;
21438;SDS011;10880;50.302;18.736;2023-12-07T10:53:08;66.53;;;23.97;;
21438;SDS011;10880;50.302;18.736;2023-12-07T10:55:38;71.70;;;27.47;;
21438;SDS011;10880;50.302;18.736;2023-12-07T10:58:12;70.27;;;26.43;;
21438;SDS011;10880;50.302;18.736;2023-12-07T11:00:40;76.80;;;28.30;;
21438;SDS011;10880;50.302;18.736;2023-12-07T11:03:15;73.57;;;27.27;;
21438;SDS011;10880;50.302;18.736;2023-12-07T11:05:46;79.93;;;29.20;;
21438;SDS011;10880;50.302;18.736;2023-12-07T11:11:06;77.90;;;28.30;;
21438;SDS011;10880;50.302;18.736;2023-12-07T11:13:57;66.37;;;24.83;;
21438;SDS011;10880;50.302;18.736;2023-12-07T11:16:32;72.63;;;26.07;;
21438;SDS011;10880;50.302;18.736;2023-12-07T11:19:02;76.70;;;26.47;;
21438;SDS011;10880;50.302;18.736;2023-12-07T11:21:33;74.73;;;27.50;;
21438;SDS011;10880;50.302;18.736;2023-12-07T11:24:00;76.13;;;27.87;;
21438;SDS011;10880;50.302;18.736;2023-12-07T11:26:27;72.30;;;25.63;;
21438;SDS011;10880;50.302;18.736;2023-12-07T11:28:54;60.50;;;23.30;;
21438;SDS011;10880;50.302;18.736;2023-12-07T11:31:22;67.27;;;26.37;;
21438;SDS011;10880;50.302;18.736;2023-12-07T11:33:50;88.13;;;30.33;;
21438;SDS011;10880;50.302;18.736;2023-12-07T11:36:16;81.27;;;30.80;;
21438;SDS011;10880;50.302;18.736;2023-12-07T11:41:34;77.73;;;29.73;;
21438;SDS011;10880;50.302;18.736;2023-12-07T11:44:06;72.23;;;27.27;;
21438;SDS011;10880;50.302;18.736;2023-12-07T11:46:32;63.67;;;24.13;;
21438;SDS011;10880;50.302;18.736;2023-12-07T11:49:00;63.77;;;23.97;;
21438;SDS011;10880;50.302;18.736;2023-12-07T11:51:29;86.17;;;29.93;;
21438;SDS011;10880;50.302;18.736;2023-12-07T11:53:55;83.17;;;31.47;;
21438;SDS011;10880;50.302;18.736;2023-12-07T11:56:22;83.70;;;31.90;;
21438;SDS011;10880;50.302;18.736;2023-12-07T11:58:50;76.67;;;28.47;;
21438;SDS011;10880;50.302;18.736;2023-12-07T12:01:18;66.77;;;27.20;;
21438;SDS011;10880;50.302;18.736;2023-12-07T12:03:46;61.93;;;24.03;;
21438;SDS011;10880;50.302;18.736;2023-12-07T12:06:13;62.53;;;23.93;;
21438;SDS011;10880;50.302;18.736;2023-12-07T12:08:40;60.57;;;23.17;;
21438;SDS011;10880;50.302;18.736;2023-12-07T12:11:07;55.13;;;21.90;;
21438;SDS011;10880;50.302;18.736;2023-12-07T12:13:35;53.77;;;19.93;;
21438;SDS011;10880;50.302;18.736;2023-12-07T12:16:02;46.10;;;19.07;;
21438;SDS011;10880;50.302;18.736;2023-12-07T12:18:30;45.03;;;17.97;;
21438;SDS011;10880;50.302;18.736;2023-12-07T12:20:56;58.27;;;23.33;;
21438;SDS011;10880;50.302;18.736;2023-12-07T12:23:25;55.30;;;22.47;;
21438;SDS011;10880;50.302;18.736;2023-12-07T12:25:52;54.33;;;22.43;;
21438;SDS011;10880;50.302;18.736;2023-12-07T12:28:20;59.70;;;23.77;;
21438;SDS011;10880;50.302;18.736;2023-12-07T12:30:49;57.73;;;22.63;;
21438;SDS011;10880;50.302;18.736;2023-12-07T12:33:17;52.57;;;22.40;;
21438;SDS011;10880;50.302;18.736;2023-12-07T12:35:43;67.03;;;26.17;;
21438;SDS011;10880;50.302;18.736;2023-12-07T12:38:10;86.43;;;29.70;;
21438;SDS011;10880;50.302;18.736;2023-12-07T12:40:37;66.13;;;26.10;;
21438;SDS011;10880;50.302;18.736;2023-12-07T12:43:04;58.60;;;23.23;;
21438;SDS011;10880;50.302;18.736;2023-12-07T12:45:32;52.20;;;21.47;;
21438;SDS011;10880;50.302;18.736;2023-12-07T12:47:59;62.63;;;25.00;;
21438;SDS011;10880;50.302;18.736;2023-12-07T12:50:33;54.10;;;23.13;;
21438;SDS011;10880;50.302;18.736;2023-12-07T12:53:03;48.27;;;20.10;;
21438;SDS011;10880;50.302;18.736;2023-12-07T12:55:35;52.37;;;20.87;;
21438;SDS011;10880;50.302;18.736;2023-12-07T12:58:03;48.90;;;19.80;;
21438;SDS011;10880;50.302;18.736;2023-12-07T13:00:32;49.10;;;19.07;;
21438;SDS011;10880;50.302;18.736;2023-12-07T13:03:00;52.67;;;21.20;;
21438;SDS011;10880;50.302;18.736;2023-12-07T13:05:30;53.47;;;21.07;;
21438;SDS011;10880;50.302;18.736;2023-12-07T13:08:01;45.50;;;19.53;;
21438;SDS011;10880;50.302;18.736;2023-12-07T13:10:28;41.23;;;16.43;;
21438;SDS011;10880;50.302;18.736;2023-12-07T13:12:54;42.57;;;17.77;;
21438;SDS011;10880;50.302;18.736;2023-12-07T13:15:22;45.97;;;19.03;;
21438;SDS011;10880;50.302;18.736;2023-12-07T13:17:48;43.80;;;18.83;;
21438;SDS011;10880;50.302;18.736;2023-12-07T13:20:16;46.87;;;19.67;;
21438;SDS011;10880;50.302;18.736;2023-12-07T13:22:43;40.33;;;17.33;;
21438;SDS011;10880;50.302;18.736;2023-12-07T13:25:09;42.80;;;17.27;;
21438;SDS011;10880;50.302;18.736;2023-12-07T13:27:38;51.07;;;20.73;;
21438;SDS011;10880;50.302;18.736;2023-12-07T13:30:04;46.00;;;18.60;;
21438;SDS011;10880;50.302;18.736;2023-12-07T13:32:33;36.53;;;15.77;;
21438;SDS011;10880;50.302;18.736;2023-12-07T13:35:03;30.73;;;14.67;;
21438;SDS011;10880;50.302;18.736;2023-12-07T13:37:31;41.37;;;17.13;;
21438;SDS011;10880;50.302;18.736;2023-12-07T13:39:58;46.40;;;18.83;;
21438;SDS011;10880;50.302;18.736;2023-12-07T13:42:26;42.83;;;18.27;;
21438;SDS011;10880;50.302;18.736;2023-12-07T13:44:55;44.43;;;18.83;;
21438;SDS011;10880;50.302;18.736;2023-12-07T13:47:24;37.67;;;16.40;;
21438;SDS011;10880;50.302;18.736;2023-12-07T13:50:03;44.70;;;17.40;;
21438;SDS011;10880;50.302;18.736;2023-12-07T13:52:31;43.20;;;18.50;;
21438;SDS011;10880;50.302;18.736;2023-12-07T13:54:58;41.37;;;18.17;;
21438;SDS011;10880;50.302;18.736;2023-12-07T13:57:25;39.10;;;17.47;;
21438;SDS011;10880;50.302;18.736;2023-12-07T13:59:52;41.33;;;17.57;;
21438;SDS011;10880;50.302;18.736;2023-12-07T14:02:20;40.50;;;17.33;;
21438;SDS011;10880;50.302;18.736;2023-12-07T14:04:47;41.20;;;18.37;;
21438;SDS011;10880;50.302;18.736;2023-12-07T14:07:18;47.13;;;19.37;;
21438;SDS011;10880;50.302;18.736;2023-12-07T14:09:48;61.43;;;24.50;;
21438;SDS011;10880;50.302;18.736;2023-12-07T14:12:16;69.87;;;27.97;;
21438;SDS011;10880;50.302;18.736;2023-12-07T14:14:44;78.73;;;30.03;;
21438;SDS011;10880;50.302;18.736;2023-12-07T14:17:16;74.47;;;28.10;;